sensor_id;sensor_type;location;lat;lon;timestamp;P1;durP1;ratioP1;P2;durP2;ratioP2
7707;SDS011;3896;48.758;8.888;2023-04-03T00:00:42;2.23;;;2.13;;
7707;SDS011;3896;48.758;8.888;2023-04-03T00:03:07;2.70;;;2.50;;
7707;SDS011;3896;48.758;8.888;2023-04-03T00:05:33;2.30;;;2.07;;
7707;SDS011;3896;48.758;8.888;2023-04-03T00:07:58;4.00;;;2.30;;
7707;SDS011;3896;48.758;8.888;2023-04-03T00:10:25;3.63;;;2.30;;
7707;SDS011;3896;48.758;8.888;2023-04-03T00:12:50;2.67;;;2.33;;
7707;SDS011;3896;48.758;8.888;2023-04-03T00:15:16;6.13;;;2.07;;
7707;SDS011;3896;48.758;8.888;2023-04-03T00:17:42;2.53;;;2.30;;
7707;SDS011;3896;48.758;8.888;2023-04-03T00:20:07;2.80;;;2.43;;
7707;SDS011;3896;48.758;8.888;2023-04-03T00:22:33;2.70;;;2.30;;
7707;SDS011;3896;48.758;8.888;2023-04-03T00:24:59;2.33;;;2.07;;
7707;SDS011;3896;48.758;8.888;2023-04-03T00:27:25;2.47;;;2.27;;
7707;SDS011;3896;48.758;8.888;2023-04-03T00:29:51;2.47;;;2.27;;
7707;SDS011;3896;48.758;8.888;2023-04-03T00:32:16;3.17;;;2.40;;
7707;SDS011;3896;48.758;8.888;2023-04-03T00:34:42;3.00;;;2.80;;
7707;SDS011;3896;48.758;8.888;2023-04-03T00:37:07;2.60;;;2.30;;
7707;SDS011;3896;48.758;8.888;2023-04-03T00:39:33;4.40;;;2.43;;
7707;SDS011;3896;48.758;8.888;2023-04-03T00:41:58;2.30;;;2.10;;
7707;SDS011;3896;48.758;8.888;2023-04-03T00:46:53;2.43;;;2.23;;
7707;SDS011;3896;48.758;8.888;2023-04-03T00:49:18;2.60;;;2.20;;
7707;SDS011;3896;48.758;8.888;2023-04-03T00:51:44;3.30;;;2.40;;
7707;SDS011;3896;48.758;8.888;2023-04-03T00:54:10;4.07;;;2.37;;
7707;SDS011;3896;48.758;8.888;2023-04-03T00:56:37;2.77;;;2.20;;
7707;SDS011;3896;48.758;8.888;2023-04-03T00:59:07;3.10;;;2.60;;
7707;SDS011;3896;48.758;8.888;2023-04-03T01:01:41;2.57;;;2.20;;
7707;SDS011;3896;48.758;8.888;2023-04-03T01:04:49;6.03;;;2.50;;
7707;SDS011;3896;48.758;8.888;2023-04-03T01:06:58;2.50;;;2.20;;
7707;SDS011;3896;48.758;8.888;2023-04-03T01:09:27;2.60;;;2.40;;
7707;SDS011;3896;48.758;8.888;2023-04-03T01:11:54;5.20;;;2.60;;
7707;SDS011;3896;48.758;8.888;2023-04-03T01:14:45;2.80;;;2.43;;
7707;SDS011;3896;48.758;8.888;2023-04-03T01:17:30;3.30;;;2.20;;
7707;SDS011;3896;48.758;8.888;2023-04-03T01:25:39;2.87;;;2.47;;
7707;SDS011;3896;48.758;8.888;2023-04-03T01:28:07;2.83;;;2.63;;
7707;SDS011;3896;48.758;8.888;2023-04-03T01:30:41;2.83;;;2.53;;
7707;SDS011;3896;48.758;8.888;2023-04-03T01:33:11;3.37;;;2.27;;
7707;SDS011;3896;48.758;8.888;2023-04-03T01:35:37;2.40;;;2.20;;
7707;SDS011;3896;48.758;8.888;2023-04-03T01:38:02;3.90;;;2.60;;
7707;SDS011;3896;48.758;8.888;2023-04-03T01:40:28;4.00;;;2.80;;
7707;SDS011;3896;48.758;8.888;2023-04-03T01:42:54;3.60;;;2.60;;
7707;SDS011;3896;48.758;8.888;2023-04-03T01:45:20;3.03;;;2.73;;
7707;SDS011;3896;48.758;8.888;2023-04-03T01:47:46;3.53;;;2.20;;
7707;SDS011;3896;48.758;8.888;2023-04-03T01:50:11;3.53;;;2.20;;
7707;SDS011;3896;48.758;8.888;2023-04-03T01:52:37;3.80;;;2.50;;
7707;SDS011;3896;48.758;8.888;2023-04-03T01:55:02;3.90;;;2.60;;
7707;SDS011;3896;48.758;8.888;2023-04-03T01:57:28;3.70;;;2.60;;
7707;SDS011;3896;48.758;8.888;2023-04-03T01:59:53;2.60;;;2.40;;
7707;SDS011;3896;48.758;8.888;2023-04-03T02:02:19;2.57;;;2.37;;
7707;SDS011;3896;48.758;8.888;2023-04-03T02:04:45;3.23;;;2.23;;
7707;SDS011;3896;48.758;8.888;2023-04-03T02:07:11;3.00;;;2.37;;
7707;SDS011;3896;48.758;8.888;2023-04-03T02:09:36;2.67;;;2.47;;
7707;SDS011;3896;48.758;8.888;2023-04-03T02:12:02;2.57;;;2.37;;
7707;SDS011;3896;48.758;8.888;2023-04-03T02:14:28;3.03;;;2.40;;
7707;SDS011;3896;48.758;8.888;2023-04-03T02:16:53;3.20;;;2.60;;
7707;SDS011;3896;48.758;8.888;2023-04-03T02:19:19;3.70;;;2.77;;
7707;SDS011;3896;48.758;8.888;2023-04-03T02:21:45;4.33;;;2.43;;
7707;SDS011;3896;48.758;8.888;2023-04-03T02:24:10;2.50;;;2.30;;
7707;SDS011;3896;48.758;8.888;2023-04-03T02:26:36;4.23;;;2.80;;
7707;SDS011;3896;48.758;8.888;2023-04-03T02:29:01;2.27;;;2.07;;
7707;SDS011;3896;48.758;8.888;2023-04-03T02:31:27;3.33;;;3.00;;
7707;SDS011;3896;48.758;8.888;2023-04-03T02:33:53;2.93;;;2.70;;
7707;SDS011;3896;48.758;8.888;2023-04-03T02:36:18;3.20;;;2.90;;
7707;SDS011;3896;48.758;8.888;2023-04-03T02:38:44;3.73;;;2.57;;
7707;SDS011;3896;48.758;8.888;2023-04-03T02:41:11;2.73;;;2.40;;
7707;SDS011;3896;48.758;8.888;2023-04-03T02:43:37;2.87;;;2.50;;
7707;SDS011;3896;48.758;8.888;2023-04-03T02:46:03;3.20;;;2.23;;
7707;SDS011;3896;48.758;8.888;2023-04-03T02:48:31;5.33;;;2.20;;
7707;SDS011;3896;48.758;8.888;2023-04-03T02:50:56;3.57;;;2.70;;
7707;SDS011;3896;48.758;8.888;2023-04-03T02:53:22;3.00;;;2.57;;
7707;SDS011;3896;48.758;8.888;2023-04-03T02:55:47;4.43;;;2.57;;
7707;SDS011;3896;48.758;8.888;2023-04-03T02:58:13;2.80;;;2.33;;
7707;SDS011;3896;48.758;8.888;2023-04-03T03:00:39;3.53;;;1.87;;
7707;SDS011;3896;48.758;8.888;2023-04-03T03:03:04;2.53;;;2.27;;
7707;SDS011;3896;48.758;8.888;2023-04-03T03:05:30;2.50;;;2.30;;
7707;SDS011;3896;48.758;8.888;2023-04-03T03:07:56;3.20;;;2.63;;
7707;SDS011;3896;48.758;8.888;2023-04-03T03:10:21;3.00;;;2.37;;
7707;SDS011;3896;48.758;8.888;2023-04-03T03:12:48;4.50;;;2.83;;
7707;SDS011;3896;48.758;8.888;2023-04-03T03:15:14;3.80;;;2.70;;
7707;SDS011;3896;48.758;8.888;2023-04-03T03:17:41;2.57;;;2.37;;
7707;SDS011;3896;48.758;8.888;2023-04-03T03:20:07;2.50;;;2.30;;
7707;SDS011;3896;48.758;8.888;2023-04-03T03:22:33;2.50;;;2.30;;
7707;SDS011;3896;48.758;8.888;2023-04-03T03:24:59;2.63;;;2.43;;
7707;SDS011;3896;48.758;8.888;2023-04-03T03:27:25;3.13;;;2.90;;
7707;SDS011;3896;48.758;8.888;2023-04-03T03:29:51;2.70;;;2.50;;
7707;SDS011;3896;48.758;8.888;2023-04-03T03:32:17;2.60;;;2.40;;
7707;SDS011;3896;48.758;8.888;2023-04-03T03:34:42;3.80;;;2.60;;
7707;SDS011;3896;48.758;8.888;2023-04-03T03:37:08;3.67;;;2.63;;
7707;SDS011;3896;48.758;8.888;2023-04-03T03:39:33;3.53;;;2.60;;
7707;SDS011;3896;48.758;8.888;2023-04-03T03:41:59;2.77;;;2.47;;
7707;SDS011;3896;48.758;8.888;2023-04-03T03:44:24;4.10;;;2.40;;
7707;SDS011;3896;48.758;8.888;2023-04-03T03:46:50;2.37;;;2.27;;
7707;SDS011;3896;48.758;8.888;2023-04-03T03:49:16;4.50;;;3.10;;
7707;SDS011;3896;48.758;8.888;2023-04-03T03:51:41;3.17;;;2.70;;
7707;SDS011;3896;48.758;8.888;2023-04-03T03:54:07;4.70;;;2.80;;
7707;SDS011;3896;48.758;8.888;2023-04-03T03:56:33;4.10;;;2.67;;
7707;SDS011;3896;48.758;8.888;2023-04-03T03:58:59;3.57;;;2.67;;
7707;SDS011;3896;48.758;8.888;2023-04-03T04:01:24;2.90;;;2.67;;
7707;SDS011;3896;48.758;8.888;2023-04-03T04:03:50;5.53;;;2.87;;
7707;SDS011;3896;48.758;8.888;2023-04-03T04:06:18;3.33;;;2.70;;
7707;SDS011;3896;48.758;8.888;2023-04-03T04:08:44;4.67;;;2.67;;
7707;SDS011;3896;48.758;8.888;2023-04-03T04:11:10;3.93;;;2.63;;
7707;SDS011;3896;48.758;8.888;2023-04-03T04:13:35;2.53;;;2.33;;
7707;SDS011;3896;48.758;8.888;2023-04-03T04:16:01;3.03;;;2.57;;
7707;SDS011;3896;48.758;8.888;2023-04-03T04:18:27;4.00;;;2.60;;
7707;SDS011;3896;48.758;8.888;2023-04-03T04:20:52;4.77;;;2.67;;
7707;SDS011;3896;48.758;8.888;2023-04-03T04:23:18;2.53;;;2.33;;
7707;SDS011;3896;48.758;8.888;2023-04-03T04:25:47;4.23;;;2.80;;
7707;SDS011;3896;48.758;8.888;2023-04-03T04:28:13;2.67;;;2.37;;
7707;SDS011;3896;48.758;8.888;2023-04-03T04:30:39;3.50;;;2.67;;
7707;SDS011;3896;48.758;8.888;2023-04-03T04:33:05;3.13;;;2.40;;
7707;SDS011;3896;48.758;8.888;2023-04-03T04:35:31;3.33;;;2.30;;
7707;SDS011;3896;48.758;8.888;2023-04-03T04:37:57;2.60;;;2.40;;
7707;SDS011;3896;48.758;8.888;2023-04-03T04:40:23;3.83;;;2.40;;
7707;SDS011;3896;48.758;8.888;2023-04-03T04:42:48;3.20;;;2.37;;
7707;SDS011;3896;48.758;8.888;2023-04-03T04:45:14;4.00;;;2.50;;
7707;SDS011;3896;48.758;8.888;2023-04-03T04:47:40;2.60;;;2.10;;
7707;SDS011;3896;48.758;8.888;2023-04-03T04:50:06;2.83;;;2.63;;
7707;SDS011;3896;48.758;8.888;2023-04-03T04:52:32;3.33;;;2.60;;
7707;SDS011;3896;48.758;8.888;2023-04-03T04:54:58;3.77;;;2.83;;
7707;SDS011;3896;48.758;8.888;2023-04-03T04:57:23;2.80;;;2.60;;
7707;SDS011;3896;48.758;8.888;2023-04-03T04:59:49;2.70;;;2.50;;
7707;SDS011;3896;48.758;8.888;2023-04-03T05:02:14;2.67;;;2.47;;
7707;SDS011;3896;48.758;8.888;2023-04-03T05:04:40;4.33;;;2.70;;
7707;SDS011;3896;48.758;8.888;2023-04-03T05:07:06;3.50;;;2.33;;
7707;SDS011;3896;48.758;8.888;2023-04-03T05:09:31;3.07;;;2.53;;
7707;SDS011;3896;48.758;8.888;2023-04-03T05:11:57;3.37;;;2.37;;
7707;SDS011;3896;48.758;8.888;2023-04-03T05:14:22;3.10;;;2.40;;
7707;SDS011;3896;48.758;8.888;2023-04-03T05:16:48;3.20;;;2.90;;
7707;SDS011;3896;48.758;8.888;2023-04-03T05:19:17;4.87;;;2.60;;
7707;SDS011;3896;48.758;8.888;2023-04-03T05:21:43;6.50;;;3.20;;
7707;SDS011;3896;48.758;8.888;2023-04-03T05:24:09;2.57;;;2.37;;
7707;SDS011;3896;48.758;8.888;2023-04-03T05:26:34;4.00;;;2.40;;
7707;SDS011;3896;48.758;8.888;2023-04-03T05:29:00;3.17;;;2.30;;
7707;SDS011;3896;48.758;8.888;2023-04-03T05:31:26;2.93;;;2.63;;
7707;SDS011;3896;48.758;8.888;2023-04-03T05:33:54;4.83;;;2.63;;
7707;SDS011;3896;48.758;8.888;2023-04-03T05:36:20;2.80;;;2.40;;
7707;SDS011;3896;48.758;8.888;2023-04-03T05:38:46;4.57;;;2.70;;
7707;SDS011;3896;48.758;8.888;2023-04-03T05:41:12;4.20;;;2.40;;
7707;SDS011;3896;48.758;8.888;2023-04-03T05:43:38;3.10;;;2.77;;
7707;SDS011;3896;48.758;8.888;2023-04-03T05:46:08;2.33;;;2.17;;
7707;SDS011;3896;48.758;8.888;2023-04-03T05:48:37;2.77;;;2.53;;
7707;SDS011;3896;48.758;8.888;2023-04-03T05:51:03;3.03;;;2.30;;
7707;SDS011;3896;48.758;8.888;2023-04-03T05:53:30;5.33;;;2.40;;
7707;SDS011;3896;48.758;8.888;2023-04-03T05:55:58;2.30;;;2.10;;
7707;SDS011;3896;48.758;8.888;2023-04-03T05:58:24;2.50;;;2.00;;
7707;SDS011;3896;48.758;8.888;2023-04-03T06:00:49;2.97;;;2.13;;
7707;SDS011;3896;48.758;8.888;2023-04-03T06:03:15;4.37;;;2.40;;
7707;SDS011;3896;48.758;8.888;2023-04-03T06:05:40;2.77;;;2.57;;
7707;SDS011;3896;48.758;8.888;2023-04-03T06:08:06;2.20;;;2.00;;
7707;SDS011;3896;48.758;8.888;2023-04-03T06:10:33;3.10;;;2.57;;
7707;SDS011;3896;48.758;8.888;2023-04-03T06:13:00;4.90;;;2.20;;
7707;SDS011;3896;48.758;8.888;2023-04-03T06:15:26;2.90;;;2.20;;
7707;SDS011;3896;48.758;8.888;2023-04-03T06:17:52;2.87;;;2.53;;
7707;SDS011;3896;48.758;8.888;2023-04-03T06:20:17;2.30;;;2.10;;
7707;SDS011;3896;48.758;8.888;2023-04-03T06:22:43;2.70;;;2.50;;
7707;SDS011;3896;48.758;8.888;2023-04-03T06:25:08;2.63;;;2.10;;
7707;SDS011;3896;48.758;8.888;2023-04-03T06:27:35;3.27;;;2.67;;
7707;SDS011;3896;48.758;8.888;2023-04-03T06:30:00;3.17;;;2.27;;
7707;SDS011;3896;48.758;8.888;2023-04-03T06:32:26;4.27;;;2.47;;
7707;SDS011;3896;48.758;8.888;2023-04-03T06:34:51;3.73;;;2.57;;
7707;SDS011;3896;48.758;8.888;2023-04-03T06:37:19;4.27;;;2.60;;
7707;SDS011;3896;48.758;8.888;2023-04-03T06:39:46;5.03;;;2.00;;
7707;SDS011;3896;48.758;8.888;2023-04-03T06:42:12;2.43;;;2.00;;
7707;SDS011;3896;48.758;8.888;2023-04-03T06:44:38;2.73;;;2.20;;
7707;SDS011;3896;48.758;8.888;2023-04-03T06:47:04;2.37;;;2.17;;
7707;SDS011;3896;48.758;8.888;2023-04-03T06:49:30;4.43;;;2.27;;
7707;SDS011;3896;48.758;8.888;2023-04-03T06:51:56;2.47;;;2.10;;
7707;SDS011;3896;48.758;8.888;2023-04-03T06:54:22;2.67;;;2.43;;
7707;SDS011;3896;48.758;8.888;2023-04-03T06:56:48;2.40;;;2.20;;
7707;SDS011;3896;48.758;8.888;2023-04-03T06:59:14;2.20;;;2.00;;
7707;SDS011;3896;48.758;8.888;2023-04-03T07:01:40;3.87;;;2.50;;
7707;SDS011;3896;48.758;8.888;2023-04-03T07:04:06;3.40;;;2.50;;
7707;SDS011;3896;48.758;8.888;2023-04-03T07:06:32;4.23;;;2.10;;
7707;SDS011;3896;48.758;8.888;2023-04-03T07:08:58;2.33;;;2.10;;
7707;SDS011;3896;48.758;8.888;2023-04-03T07:11:24;3.30;;;2.00;;
7707;SDS011;3896;48.758;8.888;2023-04-03T07:13:51;4.07;;;2.33;;
7707;SDS011;3896;48.758;8.888;2023-04-03T07:16:17;2.83;;;2.10;;
7707;SDS011;3896;48.758;8.888;2023-04-03T07:18:43;2.37;;;2.17;;
7707;SDS011;3896;48.758;8.888;2023-04-03T07:21:09;5.17;;;2.00;;
7707;SDS011;3896;48.758;8.888;2023-04-03T07:23:35;3.13;;;2.03;;
7707;SDS011;3896;48.758;8.888;2023-04-03T07:26:01;5.37;;;2.40;;
7707;SDS011;3896;48.758;8.888;2023-04-03T07:28:27;3.07;;;2.20;;
7707;SDS011;3896;48.758;8.888;2023-04-03T07:30:53;3.03;;;2.50;;
7707;SDS011;3896;48.758;8.888;2023-04-03T07:33:24;2.70;;;2.20;;
7707;SDS011;3896;48.758;8.888;2023-04-03T07:35:51;3.50;;;2.50;;
7707;SDS011;3896;48.758;8.888;2023-04-03T07:38:16;3.90;;;2.37;;
7707;SDS011;3896;48.758;8.888;2023-04-03T07:40:46;3.07;;;2.23;;
7707;SDS011;3896;48.758;8.888;2023-04-03T07:43:13;4.30;;;2.40;;
7707;SDS011;3896;48.758;8.888;2023-04-03T07:45:39;5.03;;;2.73;;
7707;SDS011;3896;48.758;8.888;2023-04-03T07:48:05;3.17;;;2.20;;
7707;SDS011;3896;48.758;8.888;2023-04-03T07:50:31;3.47;;;2.57;;
7707;SDS011;3896;48.758;8.888;2023-04-03T07:52:57;3.20;;;2.50;;
7707;SDS011;3896;48.758;8.888;2023-04-03T07:55:23;3.07;;;2.57;;
7707;SDS011;3896;48.758;8.888;2023-04-03T07:57:49;3.47;;;2.43;;
7707;SDS011;3896;48.758;8.888;2023-04-03T08:00:15;3.07;;;2.80;;
7707;SDS011;3896;48.758;8.888;2023-04-03T08:02:42;2.83;;;2.50;;
7707;SDS011;3896;48.758;8.888;2023-04-03T08:05:09;2.23;;;2.13;;
7707;SDS011;3896;48.758;8.888;2023-04-03T08:07:37;2.50;;;2.30;;
7707;SDS011;3896;48.758;8.888;2023-04-03T08:10:03;2.73;;;2.20;;
7707;SDS011;3896;48.758;8.888;2023-04-03T08:12:29;5.67;;;2.57;;
7707;SDS011;3896;48.758;8.888;2023-04-03T08:14:56;3.90;;;2.37;;
7707;SDS011;3896;48.758;8.888;2023-04-03T08:17:22;2.63;;;2.43;;
7707;SDS011;3896;48.758;8.888;2023-04-03T08:19:48;3.53;;;2.47;;
7707;SDS011;3896;48.758;8.888;2023-04-03T08:22:13;2.60;;;2.40;;
7707;SDS011;3896;48.758;8.888;2023-04-03T08:24:41;4.20;;;2.37;;
7707;SDS011;3896;48.758;8.888;2023-04-03T08:27:06;5.33;;;2.30;;
7707;SDS011;3896;48.758;8.888;2023-04-03T08:29:32;3.40;;;2.60;;
7707;SDS011;3896;48.758;8.888;2023-04-03T08:31:58;3.57;;;2.87;;
7707;SDS011;3896;48.758;8.888;2023-04-03T08:34:24;3.07;;;1.90;;
7707;SDS011;3896;48.758;8.888;2023-04-03T08:36:50;3.03;;;2.70;;
7707;SDS011;3896;48.758;8.888;2023-04-03T08:39:16;3.97;;;2.43;;
7707;SDS011;3896;48.758;8.888;2023-04-03T08:41:43;2.10;;;2.00;;
7707;SDS011;3896;48.758;8.888;2023-04-03T08:44:25;2.03;;;1.87;;
7707;SDS011;3896;48.758;8.888;2023-04-03T08:47:02;2.40;;;2.20;;
7707;SDS011;3896;48.758;8.888;2023-04-03T08:50:35;3.47;;;2.40;;
7707;SDS011;3896;48.758;8.888;2023-04-03T08:52:52;3.20;;;2.90;;
7707;SDS011;3896;48.758;8.888;2023-04-03T08:55:24;3.57;;;2.30;;
7707;SDS011;3896;48.758;8.888;2023-04-03T09:00:30;2.23;;;1.93;;
7707;SDS011;3896;48.758;8.888;2023-04-03T09:03:15;3.37;;;2.40;;
7707;SDS011;3896;48.758;8.888;2023-04-03T09:05:47;3.60;;;2.20;;
7707;SDS011;3896;48.758;8.888;2023-04-03T09:16:49;2.13;;;1.93;;
7707;SDS011;3896;48.758;8.888;2023-04-03T09:19:26;4.23;;;2.60;;
7707;SDS011;3896;48.758;8.888;2023-04-03T09:22:46;2.30;;;2.10;;
7707;SDS011;3896;48.758;8.888;2023-04-03T09:27:43;2.40;;;2.20;;
7707;SDS011;3896;48.758;8.888;2023-04-03T09:30:13;4.23;;;2.40;;
7707;SDS011;3896;48.758;8.888;2023-04-03T09:32:40;4.10;;;1.83;;
7707;SDS011;3896;48.758;8.888;2023-04-03T09:37:42;2.47;;;2.27;;
7707;SDS011;3896;48.758;8.888;2023-04-03T09:42:51;3.00;;;2.33;;
7707;SDS011;3896;48.758;8.888;2023-04-03T09:45:25;2.47;;;2.27;;
7707;SDS011;3896;48.758;8.888;2023-04-03T09:48:06;3.10;;;2.13;;
7707;SDS011;3896;48.758;8.888;2023-04-03T09:55:58;2.87;;;2.27;;
7707;SDS011;3896;48.758;8.888;2023-04-03T09:58:29;3.07;;;2.53;;
7707;SDS011;3896;48.758;8.888;2023-04-03T10:00:57;2.87;;;2.53;;
7707;SDS011;3896;48.758;8.888;2023-04-03T10:05:55;3.40;;;2.50;;
7707;SDS011;3896;48.758;8.888;2023-04-03T10:08:24;2.33;;;2.10;;
7707;SDS011;3896;48.758;8.888;2023-04-03T10:11:08;6.50;;;2.23;;
7707;SDS011;3896;48.758;8.888;2023-04-03T10:13:58;3.20;;;2.23;;
7707;SDS011;3896;48.758;8.888;2023-04-03T10:16:27;2.93;;;2.23;;
7707;SDS011;3896;48.758;8.888;2023-04-03T10:21:48;2.87;;;2.10;;
7707;SDS011;3896;48.758;8.888;2023-04-03T10:25:04;5.07;;;1.97;;
7707;SDS011;3896;48.758;8.888;2023-04-03T10:30:42;2.57;;;2.10;;
7707;SDS011;3896;48.758;8.888;2023-04-03T10:36:01;1.67;;;1.57;;
7707;SDS011;3896;48.758;8.888;2023-04-03T10:38:38;1.97;;;1.60;;
7707;SDS011;3896;48.758;8.888;2023-04-03T10:44:12;2.57;;;2.00;;
7707;SDS011;3896;48.758;8.888;2023-04-03T10:46:53;1.70;;;1.50;;
7707;SDS011;3896;48.758;8.888;2023-04-03T10:49:41;3.60;;;1.77;;
7707;SDS011;3896;48.758;8.888;2023-04-03T10:55:15;1.57;;;1.47;;
7707;SDS011;3896;48.758;8.888;2023-04-03T10:57:52;2.00;;;1.43;;
7707;SDS011;3896;48.758;8.888;2023-04-03T11:00:41;1.47;;;1.37;;
7707;SDS011;3896;48.758;8.888;2023-04-03T11:03:14;2.33;;;1.50;;
7707;SDS011;3896;48.758;8.888;2023-04-03T11:05:48;3.27;;;1.63;;
7707;SDS011;3896;48.758;8.888;2023-04-03T11:08:25;2.00;;;1.73;;
7707;SDS011;3896;48.758;8.888;2023-04-03T11:11:30;2.10;;;1.43;;
7707;SDS011;3896;48.758;8.888;2023-04-03T11:16:42;2.60;;;1.70;;
7707;SDS011;3896;48.758;8.888;2023-04-03T11:22:01;2.03;;;1.60;;
7707;SDS011;3896;48.758;8.888;2023-04-03T11:24:33;2.47;;;1.63;;
7707;SDS011;3896;48.758;8.888;2023-04-03T11:27:03;1.93;;;1.60;;
7707;SDS011;3896;48.758;8.888;2023-04-03T11:29:31;2.77;;;1.70;;
7707;SDS011;3896;48.758;8.888;2023-04-03T11:34:46;1.77;;;1.60;;
7707;SDS011;3896;48.758;8.888;2023-04-03T11:37:20;8.00;;;2.13;;
7707;SDS011;3896;48.758;8.888;2023-04-03T11:40:17;2.27;;;1.50;;
7707;SDS011;3896;48.758;8.888;2023-04-03T11:46:01;2.03;;;1.53;;
7707;SDS011;3896;48.758;8.888;2023-04-03T11:51:02;3.83;;;1.60;;
7707;SDS011;3896;48.758;8.888;2023-04-03T11:53:52;1.83;;;1.63;;
7707;SDS011;3896;48.758;8.888;2023-04-03T12:01:44;1.90;;;1.20;;
7707;SDS011;3896;48.758;8.888;2023-04-03T12:04:11;2.50;;;1.40;;
7707;SDS011;3896;48.758;8.888;2023-04-03T12:11:59;2.60;;;1.60;;
7707;SDS011;3896;48.758;8.888;2023-04-03T12:14:26;2.20;;;1.50;;
7707;SDS011;3896;48.758;8.888;2023-04-03T12:16:54;1.70;;;1.60;;
7707;SDS011;3896;48.758;8.888;2023-04-03T12:24:37;1.73;;;1.50;;
7707;SDS011;3896;48.758;8.888;2023-04-03T12:43:24;1.93;;;1.30;;
7707;SDS011;3896;48.758;8.888;2023-04-03T12:46:14;2.33;;;1.70;;
7707;SDS011;3896;48.758;8.888;2023-04-03T12:48:53;1.67;;;1.57;;
7707;SDS011;3896;48.758;8.888;2023-04-03T12:54:16;2.03;;;1.20;;
7707;SDS011;3896;48.758;8.888;2023-04-03T12:59:49;1.40;;;1.30;;
7707;SDS011;3896;48.758;8.888;2023-04-03T13:02:36;1.43;;;1.33;;
7707;SDS011;3896;48.758;8.888;2023-04-03T13:05:09;1.23;;;1.10;;
7707;SDS011;3896;48.758;8.888;2023-04-03T13:07:38;1.40;;;1.30;;
7707;SDS011;3896;48.758;8.888;2023-04-03T13:12:32;1.50;;;1.40;;
7707;SDS011;3896;48.758;8.888;2023-04-03T13:15:01;2.27;;;1.20;;
7707;SDS011;3896;48.758;8.888;2023-04-03T13:17:41;2.13;;;1.70;;
7707;SDS011;3896;48.758;8.888;2023-04-03T13:20:18;1.70;;;1.40;;
7707;SDS011;3896;48.758;8.888;2023-04-03T13:25:22;3.27;;;1.53;;
7707;SDS011;3896;48.758;8.888;2023-04-03T13:27:51;1.70;;;1.40;;
7707;SDS011;3896;48.758;8.888;2023-04-03T13:30:38;3.37;;;1.80;;
7707;SDS011;3896;48.758;8.888;2023-04-03T13:33:23;2.10;;;1.33;;
7707;SDS011;3896;48.758;8.888;2023-04-03T13:36:05;4.43;;;1.87;;
7707;SDS011;3896;48.758;8.888;2023-04-03T13:38:34;2.27;;;1.40;;
7707;SDS011;3896;48.758;8.888;2023-04-03T13:41:03;1.57;;;1.37;;
7707;SDS011;3896;48.758;8.888;2023-04-03T13:43:53;3.80;;;1.53;;
7707;SDS011;3896;48.758;8.888;2023-04-03T13:48:45;4.03;;;1.60;;
7707;SDS011;3896;48.758;8.888;2023-04-03T13:53:51;2.63;;;1.70;;
7707;SDS011;3896;48.758;8.888;2023-04-03T13:58:55;2.80;;;1.37;;
7707;SDS011;3896;48.758;8.888;2023-04-03T14:01:21;2.57;;;1.77;;
7707;SDS011;3896;48.758;8.888;2023-04-03T14:03:58;3.03;;;2.03;;
7707;SDS011;3896;48.758;8.888;2023-04-03T14:06:25;1.70;;;1.60;;
7707;SDS011;3896;48.758;8.888;2023-04-03T14:08:51;1.83;;;1.40;;
7707;SDS011;3896;48.758;8.888;2023-04-03T14:11:19;4.57;;;1.90;;
7707;SDS011;3896;48.758;8.888;2023-04-03T14:13:48;4.70;;;1.50;;
7707;SDS011;3896;48.758;8.888;2023-04-03T14:16:15;2.60;;;1.60;;
7707;SDS011;3896;48.758;8.888;2023-04-03T14:18:46;1.70;;;1.50;;
7707;SDS011;3896;48.758;8.888;2023-04-03T14:21:14;4.40;;;2.07;;
7707;SDS011;3896;48.758;8.888;2023-04-03T14:23:42;1.83;;;1.30;;
7707;SDS011;3896;48.758;8.888;2023-04-03T14:26:16;4.90;;;1.63;;
7707;SDS011;3896;48.758;8.888;2023-04-03T14:28:44;4.07;;;1.70;;
7707;SDS011;3896;48.758;8.888;2023-04-03T14:31:11;5.17;;;1.60;;
7707;SDS011;3896;48.758;8.888;2023-04-03T14:33:38;2.70;;;1.47;;
7707;SDS011;3896;48.758;8.888;2023-04-03T14:36:13;1.30;;;1.30;;
7707;SDS011;3896;48.758;8.888;2023-04-03T14:38:41;1.87;;;1.60;;
7707;SDS011;3896;48.758;8.888;2023-04-03T14:41:08;2.83;;;1.50;;
7707;SDS011;3896;48.758;8.888;2023-04-03T14:43:37;1.60;;;1.50;;
7707;SDS011;3896;48.758;8.888;2023-04-03T14:46:03;2.60;;;1.90;;
7707;SDS011;3896;48.758;8.888;2023-04-03T14:48:30;3.40;;;1.57;;
7707;SDS011;3896;48.758;8.888;2023-04-03T14:50:56;4.73;;;2.17;;
7707;SDS011;3896;48.758;8.888;2023-04-03T14:53:22;2.07;;;1.57;;
7707;SDS011;3896;48.758;8.888;2023-04-03T14:55:49;1.40;;;1.30;;
7707;SDS011;3896;48.758;8.888;2023-04-03T14:58:17;1.50;;;1.40;;
7707;SDS011;3896;48.758;8.888;2023-04-03T15:00:43;1.80;;;1.47;;
7707;SDS011;3896;48.758;8.888;2023-04-03T15:03:13;1.53;;;1.40;;
7707;SDS011;3896;48.758;8.888;2023-04-03T15:05:41;2.43;;;1.70;;
7707;SDS011;3896;48.758;8.888;2023-04-03T15:08:10;5.43;;;2.00;;
7707;SDS011;3896;48.758;8.888;2023-04-03T15:10:49;4.03;;;1.83;;
7707;SDS011;3896;48.758;8.888;2023-04-03T15:13:17;2.70;;;2.13;;
7707;SDS011;3896;48.758;8.888;2023-04-03T15:15:43;1.50;;;1.40;;
7707;SDS011;3896;48.758;8.888;2023-04-03T15:18:23;2.00;;;1.50;;
7707;SDS011;3896;48.758;8.888;2023-04-03T15:20:51;2.07;;;1.40;;
7707;SDS011;3896;48.758;8.888;2023-04-03T15:23:17;2.60;;;1.47;;
7707;SDS011;3896;48.758;8.888;2023-04-03T15:25:47;2.30;;;1.70;;
7707;SDS011;3896;48.758;8.888;2023-04-03T15:28:18;1.73;;;1.27;;
7707;SDS011;3896;48.758;8.888;2023-04-03T15:30:50;2.40;;;1.47;;
7707;SDS011;3896;48.758;8.888;2023-04-03T15:33:16;2.13;;;1.30;;
7707;SDS011;3896;48.758;8.888;2023-04-03T15:35:41;1.57;;;1.40;;
7707;SDS011;3896;48.758;8.888;2023-04-03T15:38:07;2.53;;;1.30;;
7707;SDS011;3896;48.758;8.888;2023-04-03T15:40:33;3.93;;;1.60;;
7707;SDS011;3896;48.758;8.888;2023-04-03T15:42:59;4.80;;;1.60;;
7707;SDS011;3896;48.758;8.888;2023-04-03T15:45:26;4.10;;;1.70;;
7707;SDS011;3896;48.758;8.888;2023-04-03T15:47:54;2.17;;;1.30;;
7707;SDS011;3896;48.758;8.888;2023-04-03T15:50:19;3.67;;;1.97;;
7707;SDS011;3896;48.758;8.888;2023-04-03T15:52:47;1.70;;;1.30;;
7707;SDS011;3896;48.758;8.888;2023-04-03T15:55:16;3.60;;;2.00;;
7707;SDS011;3896;48.758;8.888;2023-04-03T15:57:41;2.40;;;1.50;;
7707;SDS011;3896;48.758;8.888;2023-04-03T16:00:07;4.27;;;1.70;;
7707;SDS011;3896;48.758;8.888;2023-04-03T16:02:33;2.90;;;1.80;;
7707;SDS011;3896;48.758;8.888;2023-04-03T16:04:59;1.40;;;1.20;;
7707;SDS011;3896;48.758;8.888;2023-04-03T16:07:26;4.83;;;2.40;;
7707;SDS011;3896;48.758;8.888;2023-04-03T16:09:52;1.80;;;1.30;;
7707;SDS011;3896;48.758;8.888;2023-04-03T16:12:17;3.07;;;1.83;;
7707;SDS011;3896;48.758;8.888;2023-04-03T16:14:43;2.63;;;1.43;;
7707;SDS011;3896;48.758;8.888;2023-04-03T16:17:08;2.63;;;1.50;;
7707;SDS011;3896;48.758;8.888;2023-04-03T16:19:34;1.60;;;1.40;;
7707;SDS011;3896;48.758;8.888;2023-04-03T16:21:59;2.13;;;1.73;;
7707;SDS011;3896;48.758;8.888;2023-04-03T16:24:26;2.87;;;1.53;;
7707;SDS011;3896;48.758;8.888;2023-04-03T16:26:51;1.60;;;1.50;;
7707;SDS011;3896;48.758;8.888;2023-04-03T16:29:18;4.03;;;1.93;;
7707;SDS011;3896;48.758;8.888;2023-04-03T16:31:43;2.63;;;1.50;;
7707;SDS011;3896;48.758;8.888;2023-04-03T16:34:09;2.50;;;1.40;;
7707;SDS011;3896;48.758;8.888;2023-04-03T16:36:35;2.43;;;1.63;;
7707;SDS011;3896;48.758;8.888;2023-04-03T16:39:02;2.60;;;1.73;;
7707;SDS011;3896;48.758;8.888;2023-04-03T16:41:28;3.40;;;1.80;;
7707;SDS011;3896;48.758;8.888;2023-04-03T16:43:53;3.83;;;2.07;;
7707;SDS011;3896;48.758;8.888;2023-04-03T16:46:19;2.13;;;1.93;;
7707;SDS011;3896;48.758;8.888;2023-04-03T16:48:45;1.60;;;1.50;;
7707;SDS011;3896;48.758;8.888;2023-04-03T16:51:11;2.00;;;1.70;;
7707;SDS011;3896;48.758;8.888;2023-04-03T16:53:38;2.30;;;2.07;;
7707;SDS011;3896;48.758;8.888;2023-04-03T16:56:03;2.33;;;1.90;;
7707;SDS011;3896;48.758;8.888;2023-04-03T16:58:29;3.07;;;1.80;;
7707;SDS011;3896;48.758;8.888;2023-04-03T17:00:55;2.60;;;1.80;;
7707;SDS011;3896;48.758;8.888;2023-04-03T17:03:20;1.53;;;1.43;;
7707;SDS011;3896;48.758;8.888;2023-04-03T17:05:48;2.10;;;1.60;;
7707;SDS011;3896;48.758;8.888;2023-04-03T17:08:13;3.33;;;1.80;;
7707;SDS011;3896;48.758;8.888;2023-04-03T17:10:40;1.40;;;1.30;;
7707;SDS011;3896;48.758;8.888;2023-04-03T17:13:06;2.00;;;1.80;;
7707;SDS011;3896;48.758;8.888;2023-04-03T17:15:32;3.03;;;2.17;;
7707;SDS011;3896;48.758;8.888;2023-04-03T17:17:58;3.50;;;2.00;;